createdAt,value
2016-06-24T00:00:03.426Z,61.78
2016-06-24T00:01:03.430Z,61.98
2016-06-24T00:02:02.838Z,61.91
2016-06-24T00:03:02.857Z,61.81
2016-06-24T00:04:02.861Z,61.78
2016-06-24T00:05:02.869Z,61.68
2016-06-24T00:06:02.887Z,61.91
2016-06-24T00:07:03.493Z,61.91
2016-06-24T00:08:02.905Z,61.71
2016-06-24T00:09:03.521Z,62.01
2016-06-24T00:10:03.547Z,61.91
2016-06-24T00:11:02.942Z,61.91
2016-06-24T00:12:02.948Z,61.98
2016-06-24T00:13:02.965Z,61.81
2016-06-24T00:14:02.983Z,61.91
2016-06-24T00:15:02.975Z,61.91
2016-06-24T00:16:03.039Z,62.07
2016-06-24T00:17:03.005Z,61.68
2016-06-24T00:18:03.022Z,61.91
2016-06-24T00:19:03.627Z,61.88
2016-06-24T00:20:03.040Z,61.88
2016-06-24T00:21:03.051Z,61.88
2016-06-24T00:22:03.059Z,61.91
2016-06-24T00:23:03.069Z,61.78
2016-06-24T00:24:03.674Z,61.88
2016-06-24T00:25:03.693Z,61.98
2016-06-24T00:26:03.110Z,61.98
2016-06-24T00:27:03.718Z,61.98
2016-06-24T00:28:03.723Z,61.98
2016-06-24T00:29:03.738Z,61.98
2016-06-24T00:30:03.757Z,61.78
2016-06-24T00:31:03.155Z,61.88
2016-06-24T00:32:03.778Z,61.78
2016-06-24T00:33:03.775Z,61.98
2016-06-24T00:34:03.801Z,61.78
2016-06-24T00:35:03.797Z,61.98
2016-06-24T00:36:03.215Z,61.88
2016-06-24T00:37:03.218Z,62.26
2016-06-24T00:38:03.827Z,62.26
2016-06-24T00:39:03.863Z,62.16
2016-06-24T00:40:03.861Z,62.07
2016-06-24T00:41:03.266Z,62.07
2016-06-24T00:42:03.874Z,62.26
2016-06-24T00:43:03.891Z,62.26
2016-06-24T00:44:03.899Z,62.16
2016-06-24T00:45:03.328Z,62.26
2016-06-24T00:46:03.928Z,62.07
2016-06-24T00:47:03.930Z,62.26
2016-06-24T00:48:03.949Z,62.26
2016-06-24T00:49:03.361Z,62.16
2016-06-24T00:50:03.969Z,61.88
2016-06-24T00:51:03.979Z,62.26
2016-06-24T00:52:03.993Z,62.26
2016-06-24T00:53:04.002Z,61.88
2016-06-24T00:54:04.001Z,62.16
2016-06-24T00:55:03.426Z,62.16
2016-06-24T00:56:04.026Z,61.88
2016-06-24T00:57:03.443Z,61.88
2016-06-24T00:58:04.051Z,61.98
2016-06-24T00:59:04.072Z,62.16
2016-06-24T01:00:03.487Z,61.88
2016-06-24T01:01:04.103Z,61.88
2016-06-24T01:02:04.096Z,61.88
2016-06-24T01:03:03.511Z,62.16
2016-06-24T01:04:03.535Z,61.88
2016-06-24T01:05:04.164Z,61.78
2016-06-24T01:06:03.538Z,61.98
2016-06-24T01:07:04.162Z,61.98
2016-06-24T01:08:04.167Z,61.98
2016-06-24T01:09:04.181Z,61.88
2016-06-24T01:10:03.598Z,61.88
2016-06-24T01:11:03.594Z,61.98
2016-06-24T01:12:03.611Z,61.98
2016-06-24T01:13:03.621Z,61.78
2016-06-24T01:14:03.626Z,62.36
2016-06-24T01:15:03.999Z,61.68
2016-06-24T01:16:03.662Z,61.98
2016-06-24T01:17:04.261Z,61.98
2016-06-24T01:18:04.277Z,62.46
2016-06-24T01:19:04.283Z,62.16
2016-06-24T01:20:04.290Z,61.98
2016-06-24T01:21:04.305Z,61.88
2016-06-24T01:22:03.725Z,61.98
2016-06-24T01:23:03.730Z,61.68
2016-06-24T01:24:04.346Z,61.78
2016-06-24T01:25:04.350Z,61.88
2016-06-24T01:26:04.021Z,61.88
2016-06-24T01:27:03.931Z,62.16
2016-06-24T01:28:04.398Z,62.36
2016-06-24T01:29:03.797Z,62.36
2016-06-24T01:30:04.109Z,62.36
2016-06-24T01:31:04.420Z,62.46
2016-06-24T01:32:04.431Z,62.26
2016-06-24T01:33:04.553Z,62.07
2016-06-24T01:34:03.856Z,62.07
2016-06-24T01:35:03.861Z,61.98
2016-06-24T01:36:03.872Z,61.78
2016-06-24T01:37:04.637Z,61.98
2016-06-24T01:38:03.899Z,61.78
2016-06-24T01:39:03.908Z,61.78
2016-06-24T01:40:03.928Z,61.68
2016-06-24T01:41:04.082Z,61.98
2016-06-24T01:42:03.943Z,62.46
2016-06-24T01:43:03.957Z,62.46
2016-06-24T01:44:04.557Z,62.43
2016-06-24T01:45:04.587Z,61.78
2016-06-24T01:46:04.840Z,62.07
2016-06-24T01:47:03.991Z,62.36
2016-06-24T01:48:04.007Z,62.07
2016-06-24T01:49:04.026Z,61.78
2016-06-24T01:50:04.876Z,62.26
2016-06-24T01:51:04.629Z,62.26
2016-06-24T01:52:04.250Z,62.26
2016-06-24T01:53:04.158Z,62.07
2016-06-24T01:54:04.067Z,61.85
2016-06-24T01:55:04.835Z,61.98
2016-06-24T01:56:04.688Z,62.23
2016-06-24T01:57:04.752Z,62.16
2016-06-24T01:58:04.111Z,61.88
2016-06-24T01:59:04.729Z,62.07
2016-06-24T02:00:04.906Z,61.75
2016-06-24T02:01:04.746Z,62.36
2016-06-24T02:02:04.900Z,62.43
2016-06-24T02:03:05.022Z,62.04
2016-06-24T02:04:04.792Z,62.13
2016-06-24T02:05:04.804Z,62.16
2016-06-24T02:06:04.913Z,62.13
2016-06-24T02:07:04.911Z,62.04
2016-06-24T02:08:04.221Z,62.04
2016-06-24T02:09:05.081Z,62.04
2016-06-24T02:10:04.246Z,62.36
2016-06-24T02:11:04.258Z,61.85
2016-06-24T02:12:04.269Z,61.94
2016-06-24T02:13:04.878Z,62.26
2016-06-24T02:14:04.598Z,62.04
2016-06-24T02:15:04.293Z,62.36
2016-06-24T02:16:04.959Z,62.26
2016-06-24T02:17:04.329Z,62.43
2016-06-24T02:18:04.922Z,62.23
2016-06-24T02:19:04.447Z,62.04
2016-06-24T02:20:04.953Z,62.23
2016-06-24T02:21:04.957Z,62.23
2016-06-24T02:22:05.453Z,62.23
2016-06-24T02:23:04.390Z,62.13
2016-06-24T02:24:04.395Z,62.26
2016-06-24T02:25:05.007Z,62.13
2016-06-24T02:26:04.765Z,62.16
2016-06-24T02:27:05.025Z,62.23
2016-06-24T02:28:05.392Z,62.13
2016-06-24T02:29:05.056Z,62.04
2016-06-24T02:30:04.711Z,61.85
2016-06-24T02:31:05.369Z,62.07
2016-06-24T02:32:04.513Z,62.04
2016-06-24T02:33:04.548Z,62.13
2016-06-24T02:34:04.500Z,62.23
2016-06-24T02:35:04.526Z,61.85
2016-06-24T02:36:05.438Z,62.04
2016-06-24T02:37:04.641Z,62.04
2016-06-24T02:38:05.155Z,62.04
2016-06-24T02:39:05.160Z,61.94
2016-06-24T02:40:04.584Z,62.13
2016-06-24T02:41:05.277Z,62.04
2016-06-24T02:42:05.186Z,61.85
2016-06-24T02:43:05.200Z,62.04
2016-06-24T02:44:04.615Z,61.94
2016-06-24T02:45:04.829Z,62.04
2016-06-24T02:46:05.231Z,62.13
2016-06-24T02:47:04.644Z,62.13
2016-06-24T02:48:05.400Z,62.13
2016-06-24T02:49:05.259Z,62.23
2016-06-24T02:50:04.688Z,61.94
2016-06-24T02:51:05.283Z,62.04
2016-06-24T02:52:04.694Z,61.94
2016-06-24T02:53:04.714Z,62.43
2016-06-24T02:54:04.721Z,62.04
2016-06-24T02:55:05.342Z,61.85
2016-06-24T02:56:05.350Z,61.94
2016-06-24T02:57:05.352Z,61.85
2016-06-24T02:58:05.364Z,62.23
2016-06-24T02:59:05.389Z,62.04
2016-06-24T03:00:05.382Z,61.85
2016-06-24T03:01:04.796Z,61.85
2016-06-24T03:02:04.807Z,62.04
2016-06-24T03:03:05.423Z,61.94
2016-06-24T03:04:05.426Z,62.04
2016-06-24T03:05:05.463Z,62.23
2016-06-24T03:06:05.452Z,62.04
2016-06-24T03:07:05.466Z,62.04
2016-06-24T03:08:05.475Z,62.13
2016-06-24T03:09:04.869Z,62.13
2016-06-24T03:10:04.891Z,62.23
2016-06-24T03:11:04.903Z,62.04
2016-06-24T03:12:05.517Z,62.04
2016-06-24T03:13:04.937Z,62.13
2016-06-24T03:14:05.542Z,62.04
2016-06-24T03:15:04.945Z,62.13
2016-06-24T03:16:04.954Z,62.23
2016-06-24T03:17:04.964Z,61.94
2016-06-24T03:18:05.582Z,61.85
2016-06-24T03:19:05.602Z,62.04
2016-06-24T03:20:05.600Z,62.33
2016-06-24T03:21:05.615Z,62.23
2016-06-24T03:22:05.041Z,61.85
2016-06-24T03:23:05.627Z,62.23
2016-06-24T03:24:05.043Z,61.94
2016-06-24T03:25:05.048Z,61.85
2016-06-24T03:26:05.067Z,62.13
2016-06-24T03:27:05.679Z,62.23
2016-06-24T03:28:05.083Z,62.13
2016-06-24T03:29:05.102Z,62.13
2016-06-24T03:30:05.120Z,62.43
2016-06-24T03:31:05.122Z,62.13
2016-06-24T03:32:05.138Z,62.04
2016-06-24T03:33:05.740Z,61.85
2016-06-24T03:34:05.150Z,62.23
2016-06-24T03:35:05.170Z,62.43
2016-06-24T03:36:05.162Z,61.85
2016-06-24T03:37:05.800Z,62.13
2016-06-24T03:38:05.198Z,62.04
2016-06-24T03:39:05.202Z,62.04
2016-06-24T03:40:05.823Z,62.13
2016-06-24T03:41:05.245Z,62.04
2016-06-24T03:42:05.241Z,62.33
2016-06-24T03:43:05.254Z,61.94
2016-06-24T03:44:05.857Z,61.65
2016-06-24T03:45:05.506Z,62.13
2016-06-24T03:46:05.875Z,61.85
2016-06-24T03:47:05.898Z,62.04
2016-06-24T03:48:05.307Z,61.75
2016-06-24T03:49:05.905Z,61.75
2016-06-24T03:50:05.324Z,61.85
2016-06-24T03:51:05.946Z,61.75
2016-06-24T03:52:05.947Z,61.85
2016-06-24T03:53:05.959Z,61.65
2016-06-24T03:54:05.974Z,61.75
2016-06-24T03:55:05.984Z,61.94
2016-06-24T03:56:05.999Z,61.85
2016-06-24T03:57:06.007Z,61.94
2016-06-24T03:58:05.411Z,61.94
2016-06-24T03:59:06.030Z,61.94
2016-06-24T04:00:06.033Z,61.94
2016-06-24T04:01:05.450Z,61.85
2016-06-24T04:02:06.054Z,62.13
2016-06-24T04:03:06.058Z,62.04
2016-06-24T04:04:06.080Z,62.13
2016-06-24T04:05:05.495Z,62.13
2016-06-24T04:06:05.491Z,61.85
2016-06-24T04:07:05.514Z,62.23
2016-06-24T04:08:06.126Z,62.04
2016-06-24T04:09:06.129Z,62.23
2016-06-24T04:10:06.147Z,61.85
2016-06-24T04:11:06.160Z,61.94
2016-06-24T04:12:06.160Z,61.75
2016-06-24T04:13:06.178Z,61.85
2016-06-24T04:14:06.183Z,61.94
2016-06-24T04:15:05.588Z,61.94
2016-06-24T04:16:05.613Z,61.85
2016-06-24T04:17:05.614Z,61.85
2016-06-24T04:18:06.223Z,62.04
2016-06-24T04:19:06.230Z,61.85
2016-06-24T04:20:05.657Z,61.85
2016-06-24T04:21:05.658Z,61.85
2016-06-24T04:22:06.269Z,61.85
2016-06-24T04:23:06.290Z,61.85
2016-06-24T04:24:06.293Z,61.85
2016-06-24T04:25:05.702Z,61.78
2016-06-24T04:26:05.728Z,61.68
2016-06-24T04:27:05.716Z,61.55
2016-06-24T04:28:05.730Z,61.55
2016-06-24T04:29:06.342Z,61.55
2016-06-24T04:30:06.391Z,61.36
2016-06-24T04:31:05.758Z,61.65
2016-06-24T04:32:06.380Z,61.46
2016-06-24T04:33:05.815Z,61.55
2016-06-24T04:34:05.805Z,61.36
2016-06-24T04:35:06.399Z,61.46
2016-06-24T04:36:06.428Z,61.46
2016-06-24T04:37:05.827Z,61.58
2016-06-24T04:38:05.848Z,61.58
2016-06-24T04:39:06.453Z,61.46
2016-06-24T04:40:05.856Z,61.46
2016-06-24T04:41:06.475Z,61.49
2016-06-24T04:42:05.881Z,61.58
2016-06-24T04:43:05.883Z,61.65
2016-06-24T04:44:06.512Z,61.68
2016-06-24T04:45:05.914Z,61.58
2016-06-24T04:46:06.536Z,61.68
2016-06-24T04:47:06.554Z,61.55
2016-06-24T04:48:05.941Z,61.55
2016-06-24T04:49:06.555Z,61.49
2016-06-24T04:50:05.966Z,61.39
2016-06-24T04:51:05.980Z,61.68
2016-06-24T04:52:05.987Z,61.55
2016-06-24T04:53:06.598Z,61.49
2016-06-24T04:54:06.015Z,61.49
2016-06-24T04:55:06.027Z,61.58
2016-06-24T04:56:06.627Z,61.55
2016-06-24T04:57:06.043Z,61.39
2016-06-24T04:58:06.665Z,61.68
2016-06-24T04:59:06.070Z,61.39
2016-06-24T05:00:06.671Z,61.78
2016-06-24T05:01:06.685Z,61.78
2016-06-24T05:02:06.705Z,61.78
2016-06-24T05:03:06.707Z,61.78
2016-06-24T05:04:06.727Z,61.88
2016-06-24T05:05:06.119Z,61.78
2016-06-24T05:06:06.743Z,61.68
2016-06-24T05:07:06.750Z,61.88
2016-06-24T05:08:06.163Z,61.68
2016-06-24T05:09:06.766Z,61.78
2016-06-24T05:10:06.182Z,61.88
2016-06-24T05:11:06.191Z,61.78
2016-06-24T05:12:06.797Z,61.78
2016-06-24T05:13:06.811Z,61.78
2016-06-24T05:14:06.830Z,61.78
2016-06-24T05:15:06.840Z,61.78
2016-06-24T05:16:06.847Z,61.78
2016-06-24T05:17:06.860Z,61.29
2016-06-24T05:18:06.872Z,61.88
2016-06-24T05:19:06.872Z,61.78
2016-06-24T05:20:06.298Z,61.49
2016-06-24T05:21:06.926Z,61.29
2016-06-24T05:22:06.301Z,61.49
2016-06-24T05:23:06.313Z,61.68
2016-06-24T05:24:06.932Z,61.19
2016-06-24T05:25:06.961Z,61.39
2016-06-24T05:26:06.375Z,61.19
2016-06-24T05:27:06.362Z,61.29
2016-06-24T05:28:06.980Z,61.39
2016-06-24T05:29:06.985Z,61.49
2016-06-24T05:30:06.995Z,61.29
2016-06-24T05:31:06.409Z,61.39
2016-06-24T05:32:06.412Z,61.19
2016-06-24T05:33:07.029Z,61.39
2016-06-24T05:34:07.046Z,61.39
2016-06-24T05:35:07.043Z,61.39
2016-06-24T05:36:07.062Z,61.29
2016-06-24T05:37:06.474Z,61.29
2016-06-24T05:38:07.086Z,61.1
2016-06-24T05:39:06.497Z,61.39
2016-06-24T05:40:07.106Z,61.29
2016-06-24T05:41:07.122Z,61.29
2016-06-24T05:42:06.529Z,61.29
2016-06-24T05:43:06.559Z,61.1
2016-06-24T05:44:07.150Z,61
2016-06-24T05:45:07.162Z,61
2016-06-24T05:46:07.178Z,61.19
2016-06-24T05:47:06.587Z,61.19
2016-06-24T05:48:07.202Z,61.19
2016-06-24T05:49:06.607Z,61.29
2016-06-24T05:50:06.622Z,61.19
2016-06-24T05:51:07.228Z,61.1
2016-06-24T05:52:06.643Z,61
2016-06-24T05:53:07.252Z,61.1
2016-06-24T05:54:06.661Z,61.19
2016-06-24T05:55:06.668Z,61.1
2016-06-24T05:56:06.681Z,61.19
2016-06-24T05:57:06.686Z,61.1
2016-06-24T05:58:07.302Z,60.91
2016-06-24T05:59:06.714Z,61
2016-06-24T06:00:07.327Z,61.1
2016-06-24T06:01:07.335Z,60.81
2016-06-24T06:02:07.352Z,61
2016-06-24T06:03:07.353Z,60.81
2016-06-24T06:04:06.774Z,60.81
2016-06-24T06:05:07.375Z,61.1
2016-06-24T06:06:06.785Z,60.81
2016-06-24T06:07:07.402Z,61.1
2016-06-24T06:08:07.418Z,61.1
2016-06-24T06:09:06.829Z,61
2016-06-24T06:10:07.432Z,61
2016-06-24T06:11:07.448Z,61
2016-06-24T06:12:06.853Z,61
2016-06-24T06:13:07.117Z,60.91
2016-06-24T06:14:06.876Z,61
2016-06-24T06:15:07.479Z,61
2016-06-24T06:16:06.899Z,61
2016-06-24T06:17:06.927Z,61.1
2016-06-24T06:18:07.523Z,60.71
2016-06-24T06:19:07.534Z,60.71
2016-06-24T06:20:07.135Z,60.81
2016-06-24T06:21:07.550Z,61
2016-06-24T06:22:07.558Z,61
2016-06-24T06:23:07.004Z,61.1
2016-06-24T06:24:07.585Z,61
2016-06-24T06:25:07.002Z,60.91
2016-06-24T06:26:07.012Z,61.1
2016-06-24T06:27:07.022Z,61
2016-06-24T06:28:07.027Z,60.81
2016-06-24T06:29:07.049Z,60.91
2016-06-24T06:30:07.651Z,60.91
2016-06-24T06:31:07.657Z,61
2016-06-24T06:32:07.675Z,60.91
2016-06-24T06:33:07.082Z,60.81
2016-06-24T06:34:07.695Z,60.91
2016-06-24T06:35:07.701Z,61.1
2016-06-24T06:36:07.725Z,60.71
2016-06-24T06:37:07.122Z,60.91
2016-06-24T06:38:07.149Z,60.81
2016-06-24T06:39:07.763Z,60.81
2016-06-24T06:40:07.173Z,60.81
2016-06-24T06:41:07.174Z,60.61
2016-06-24T06:42:07.781Z,60.61
2016-06-24T06:43:07.196Z,60.84
2016-06-24T06:44:07.214Z,60.74
2016-06-24T06:45:07.816Z,60.61
2016-06-24T06:46:07.825Z,60.71
2016-06-24T06:47:07.241Z,60.74
2016-06-24T06:48:07.847Z,60.61
2016-06-24T06:49:07.865Z,60.71
2016-06-24T06:50:07.279Z,60.81
2016-06-24T06:51:07.884Z,60.74
2016-06-24T06:52:07.891Z,60.55
2016-06-24T06:53:07.906Z,60.64
2016-06-24T06:54:07.318Z,60.74
2016-06-24T06:55:07.339Z,60.64
2016-06-24T06:56:07.941Z,60.35
2016-06-24T06:57:07.358Z,60.45
2016-06-24T06:58:07.977Z,60.55
2016-06-24T06:59:07.974Z,60.74
2016-06-24T07:00:07.983Z,60.74
2016-06-24T07:01:07.394Z,60.35
2016-06-24T07:02:07.416Z,60.45
2016-06-24T07:03:07.424Z,60.45
2016-06-24T07:04:08.029Z,60.74
2016-06-24T07:05:07.441Z,60.64
2016-06-24T07:06:08.048Z,60.64
2016-06-24T07:07:07.457Z,60.74
2016-06-24T07:08:08.078Z,60.74
2016-06-24T07:09:08.129Z,60.64
2016-06-24T07:10:07.490Z,60.74
2016-06-24T07:11:07.508Z,60.74
2016-06-24T07:12:08.117Z,60.55
2016-06-24T07:13:08.137Z,60.55
2016-06-24T07:14:07.537Z,60.74
2016-06-24T07:15:08.155Z,60.84
2016-06-24T07:16:07.557Z,60.55
2016-06-24T07:17:08.179Z,60.74
2016-06-24T07:18:08.179Z,60.84
2016-06-24T07:19:07.594Z,60.55
2016-06-24T07:20:07.599Z,60.74
2016-06-24T07:21:08.223Z,60.94
2016-06-24T07:22:07.622Z,60.84
2016-06-24T07:23:08.240Z,60.74
2016-06-24T07:24:08.244Z,60.45
2016-06-24T07:25:08.255Z,60.35
2016-06-24T07:27:08.296Z,61.42
2016-06-24T07:28:08.303Z,61.61
2016-06-24T07:29:07.712Z,61.61
2016-06-24T07:30:08.308Z,61.81
2016-06-24T07:31:08.318Z,61.81
2016-06-24T07:32:07.741Z,62.59
2016-06-24T07:33:08.352Z,62.49
2016-06-24T07:34:08.349Z,62.88
2016-06-24T07:35:07.763Z,62.68
2016-06-24T07:36:08.384Z,63.07
2016-06-24T07:37:07.795Z,63.07
2016-06-24T07:38:08.404Z,63.36
2016-06-24T07:39:08.426Z,64.14
2016-06-24T07:40:07.837Z,63.56
2016-06-24T07:41:08.444Z,64.33
2016-06-24T07:42:08.443Z,64.46
2016-06-24T07:43:07.868Z,65.14
2016-06-24T07:44:07.890Z,65.14
2016-06-24T07:45:08.481Z,65.24
2016-06-24T07:46:08.499Z,65.53
2016-06-24T07:47:08.515Z,65.63
2016-06-24T07:48:08.534Z,65.53
2016-06-24T07:49:08.545Z,65.43
2016-06-24T07:50:08.544Z,65.63
2016-06-24T07:51:07.957Z,65.72
2016-06-24T07:52:07.960Z,65.53
2016-06-24T07:53:08.576Z,66.3
2016-06-24T07:54:07.990Z,66.11
2016-06-24T07:55:07.997Z,65.92
2016-06-24T07:56:08.600Z,66.11
2016-06-24T07:57:08.647Z,66.4
2016-06-24T07:58:08.034Z,66.21
2016-06-24T07:59:08.038Z,66.02
2016-06-24T08:00:08.657Z,66.21
2016-06-24T08:01:08.668Z,65.82
2016-06-24T08:02:08.073Z,65.33
2016-06-24T08:03:08.683Z,65.82
2016-06-24T08:04:08.095Z,66.11
2016-06-24T08:05:08.775Z,66.11
2016-06-24T08:06:08.717Z,65.63
2016-06-24T08:07:08.132Z,65.72
2016-06-24T08:08:08.143Z,65.24
2016-06-24T08:09:08.149Z,65.43
2016-06-24T08:10:08.759Z,65.53
2016-06-24T08:11:08.176Z,65.43
2016-06-24T08:12:08.799Z,65.33
2016-06-24T08:13:08.198Z,65.33
2016-06-24T08:14:08.209Z,65.33
2016-06-24T08:15:08.226Z,65.43
2016-06-24T08:16:08.230Z,65.33
2016-06-24T08:17:08.291Z,65.24
2016-06-24T08:18:08.862Z,65.33
2016-06-24T08:19:08.292Z,65.33
2016-06-24T08:20:08.885Z,65.08
2016-06-24T08:21:08.892Z,65.17
2016-06-24T08:22:08.898Z,65.08
2016-06-24T08:23:08.727Z,64.88
2016-06-24T08:24:08.314Z,64.78
2016-06-24T08:25:08.937Z,64.78
2016-06-24T08:26:08.356Z,65.17
2016-06-24T08:27:08.356Z,65.08
2016-06-24T08:28:08.377Z,64.88
2016-06-24T08:29:08.377Z,64.98
2016-06-24T08:30:08.385Z,65.17
2016-06-24T08:31:08.411Z,65.27
2016-06-24T08:32:09.012Z,65.37
2016-06-24T08:33:08.418Z,65.08
2016-06-24T08:34:08.442Z,65.17
2016-06-24T08:35:08.457Z,64.98
2016-06-24T08:36:08.465Z,64.88
2016-06-24T08:37:08.463Z,64.69
2016-06-24T08:38:08.493Z,64.59
2016-06-24T08:39:08.494Z,64.49
2016-06-24T08:40:09.095Z,64.49
2016-06-24T08:41:08.513Z,64.78
2016-06-24T08:42:08.530Z,64.88
2016-06-24T08:43:09.140Z,64.69
2016-06-24T08:44:09.144Z,64.98
2016-06-24T08:45:08.564Z,64.69
2016-06-24T08:46:08.575Z,64.4
2016-06-24T08:47:08.593Z,64.3
2016-06-24T08:48:09.201Z,64.11
2016-06-24T08:49:08.605Z,64.01
2016-06-24T08:50:08.623Z,63.91
2016-06-24T08:51:09.241Z,64.11
2016-06-24T08:52:08.646Z,64.11
2016-06-24T08:53:08.656Z,64.11
2016-06-24T08:54:08.670Z,64.01
2016-06-24T08:55:09.283Z,63.94
2016-06-24T08:56:09.287Z,63.94
2016-06-24T08:57:09.304Z,64.11
2016-06-24T08:58:09.310Z,63.81
2016-06-24T08:59:08.723Z,64.01
2016-06-24T09:00:08.738Z,63.81
2016-06-24T09:01:08.745Z,63.94
2016-06-24T09:02:09.362Z,64.04
2016-06-24T09:03:08.776Z,64.14
2016-06-24T09:04:08.785Z,64.11
2016-06-24T09:05:09.410Z,64.14
2016-06-24T09:06:09.410Z,64.14
2016-06-24T09:07:09.419Z,63.94
2016-06-24T09:08:09.426Z,63.84
2016-06-24T09:09:08.849Z,64.04
2016-06-24T09:10:08.853Z,64.14
2016-06-24T09:11:09.489Z,64.14
2016-06-24T09:12:08.873Z,64.04
2016-06-24T09:13:08.892Z,64.04
2016-06-24T09:14:08.905Z,63.94
2016-06-24T09:15:09.508Z,64.04
2016-06-24T09:16:08.918Z,64.04
2016-06-24T09:17:08.935Z,64.14
2016-06-24T09:18:09.542Z,64.14
2016-06-24T09:19:09.554Z,64.14
2016-06-24T09:20:08.962Z,64.23
2016-06-24T09:21:08.988Z,64.04
2016-06-24T09:22:09.595Z,64.23
2016-06-24T09:23:09.604Z,64.14
2016-06-24T09:24:09.614Z,63.94
2016-06-24T09:25:09.643Z,64.14
2016-06-24T09:26:09.049Z,64.04
2016-06-24T09:27:09.053Z,64.14
2016-06-24T09:28:09.655Z,64.23
2016-06-24T09:29:09.674Z,64.23
2016-06-24T09:30:09.692Z,64.14
2016-06-24T09:31:09.089Z,64.04
2016-06-24T09:32:09.709Z,63.94
2016-06-24T09:33:09.719Z,64.07
2016-06-24T09:34:09.740Z,63.94
2016-06-24T09:35:09.743Z,64.17
2016-06-24T09:36:09.754Z,64.14
2016-06-24T09:37:09.160Z,64.36
2016-06-24T09:38:09.183Z,64.56
2016-06-24T09:39:09.193Z,64.04
2016-06-24T09:40:09.795Z,63.87
2016-06-24T09:41:09.202Z,64.07
2016-06-24T09:42:09.221Z,64.26
2016-06-24T09:43:09.827Z,64.26
2016-06-24T09:44:09.247Z,64.36
2016-06-24T09:45:09.267Z,63.97
2016-06-24T09:46:09.273Z,63.87
2016-06-24T09:47:09.885Z,63.49
2016-06-24T09:48:09.298Z,63.87
2016-06-24T09:49:09.911Z,63.59
2016-06-24T09:50:09.323Z,63.78
2016-06-24T09:51:09.940Z,63.59
2016-06-24T09:52:09.947Z,64.46
2016-06-24T09:53:09.950Z,63.78
2016-06-24T09:54:09.957Z,63.49
2016-06-24T09:55:09.369Z,63.87
2016-06-24T09:56:09.373Z,63.49
2016-06-24T09:57:09.395Z,63.68
2016-06-24T09:58:10.002Z,63.59
2016-06-24T09:59:09.416Z,63.59
2016-06-24T10:00:10.034Z,63.78
2016-06-24T10:01:09.446Z,63.68
2016-06-24T10:02:10.055Z,63.49
2016-06-24T10:03:09.470Z,63.59
2016-06-24T10:04:10.079Z,63.68
2016-06-24T10:05:09.488Z,63.68
2016-06-24T10:06:10.099Z,63.68
2016-06-24T10:07:09.509Z,63.87
2016-06-24T10:08:09.529Z,63.78
2016-06-24T10:09:10.530Z,63.59
2016-06-24T10:10:10.150Z,63.49
2016-06-24T10:11:10.156Z,63.78
2016-06-24T10:12:09.580Z,63.59
2016-06-24T10:13:09.590Z,63.68
2016-06-24T10:14:09.596Z,63.68
2016-06-24T10:15:10.212Z,63.78
2016-06-24T10:16:09.621Z,63.39
2016-06-24T10:17:10.278Z,63.49
2016-06-24T10:18:09.637Z,63.49
2016-06-24T10:19:10.268Z,63.49
2016-06-24T10:20:09.667Z,63.52
2016-06-24T10:21:09.677Z,63.68
2016-06-24T10:22:10.285Z,63.9
2016-06-24T10:23:10.739Z,63.52
2016-06-24T10:24:10.310Z,63.9
2016-06-24T10:25:09.743Z,64.2
2016-06-24T10:26:10.338Z,64
2016-06-24T10:27:10.347Z,64.2
2016-06-24T10:28:10.354Z,64.39
2016-06-24T10:29:10.373Z,64.29
2016-06-24T10:30:09.784Z,64.29
2016-06-24T10:31:10.397Z,64.2
2016-06-24T10:32:10.402Z,64.2
2016-06-24T10:33:10.416Z,64.39
2016-06-24T10:34:09.834Z,64.29
2016-06-24T10:35:10.457Z,64.39
2016-06-24T10:36:10.455Z,64.1
2016-06-24T10:37:10.466Z,64.1
2016-06-24T10:38:10.483Z,64
2016-06-24T10:39:09.908Z,63.52
2016-06-24T10:40:10.506Z,63.81
2016-06-24T10:41:09.913Z,63.71
2016-06-24T10:42:10.528Z,63.71
2016-06-24T10:43:09.930Z,63.9
2016-06-24T10:44:09.940Z,63.23
2016-06-24T10:45:09.966Z,63.9
2016-06-24T10:46:10.562Z,63.81
2016-06-24T10:47:10.581Z,63.62
2016-06-24T10:48:10.588Z,63.62
2016-06-24T10:49:10.041Z,63.71
2016-06-24T10:50:10.026Z,63.81
2016-06-24T10:51:10.630Z,63.71
2016-06-24T10:52:10.040Z,63.71
2016-06-24T10:53:10.650Z,63.71
2016-06-24T10:54:10.655Z,63.62
2016-06-24T10:55:10.699Z,63.71
2016-06-24T10:56:10.096Z,63.23
2016-06-24T10:57:10.099Z,63.35
2016-06-24T10:58:10.718Z,64
2016-06-24T10:59:10.716Z,63.52
2016-06-24T11:00:10.141Z,63.45
2016-06-24T11:01:10.155Z,63.45
2016-06-24T11:02:10.158Z,63.32
2016-06-24T11:03:10.765Z,63.32
2016-06-24T11:04:10.179Z,63.52
2016-06-24T11:05:10.788Z,63.26
2016-06-24T11:06:10.802Z,63.42
2016-06-24T11:07:10.228Z,63.35
2016-06-24T11:08:10.225Z,63.35
2016-06-24T11:09:10.844Z,63.84
2016-06-24T11:10:10.258Z,63.35
2016-06-24T11:11:10.274Z,63.16
2016-06-24T11:12:10.276Z,63.26
2016-06-24T11:13:10.897Z,63.35
2016-06-24T11:14:10.896Z,63.26
2016-06-24T11:15:10.909Z,63.26
2016-06-24T11:16:10.926Z,63.55
2016-06-24T11:17:10.338Z,63.35
2016-06-24T11:18:10.943Z,63.55
2016-06-24T11:19:10.955Z,63.26
2016-06-24T11:20:10.373Z,63.55
2016-06-24T11:21:10.395Z,63.26
2016-06-24T11:22:10.386Z,63.35
2016-06-24T11:23:11.008Z,63.35
2016-06-24T11:24:10.429Z,63.65
2016-06-24T11:25:11.026Z,62.96
2016-06-24T11:26:10.441Z,63.06
2016-06-24T11:27:10.451Z,62.77
2016-06-24T11:28:11.053Z,63.35
2016-06-24T11:29:11.073Z,63.26
2016-06-24T11:30:10.478Z,63.26
2016-06-24T11:31:10.502Z,63.16
2016-06-24T11:32:11.110Z,63.16
2016-06-24T11:33:11.126Z,63.26
2016-06-24T11:34:10.538Z,63.26
2016-06-24T11:35:11.143Z,63.06
2016-06-24T11:36:11.171Z,63.06
2016-06-24T11:37:10.577Z,63.06
2016-06-24T11:38:11.174Z,62.87
2016-06-24T11:39:11.203Z,62.77
2016-06-24T11:40:11.362Z,62.7
2016-06-24T11:41:11.336Z,62.51
2016-06-24T11:42:10.746Z,62.48
2016-06-24T11:43:11.385Z,62.32
2016-06-24T11:44:11.374Z,62.32
2016-06-24T11:45:11.269Z,62.7
2016-06-24T11:46:11.279Z,62.6
2016-06-24T11:47:11.288Z,62.6
2016-06-24T11:48:10.689Z,62.99
2016-06-24T11:49:11.305Z,62.8
2016-06-24T11:50:10.713Z,62.8
2016-06-24T11:51:11.325Z,62.8
2016-06-24T11:52:10.749Z,62.22
2016-06-24T11:53:10.748Z,62.8
2016-06-24T11:54:10.761Z,62.41
2016-06-24T11:55:10.774Z,63.39
2016-06-24T11:56:10.794Z,62.8
2016-06-24T11:57:11.396Z,62.9
2016-06-24T11:58:10.815Z,63.29
2016-06-24T11:59:10.823Z,63.19
2016-06-24T12:00:11.459Z,62.99
2016-06-24T12:01:11.789Z,63.09
2016-06-24T12:02:11.458Z,63.39
2016-06-24T12:03:11.469Z,63.29
2016-06-24T12:04:10.880Z,62.7
2016-06-24T12:05:11.491Z,62.6
2016-06-24T12:06:10.906Z,62.83
2016-06-24T12:07:10.922Z,62.9
2016-06-24T12:08:11.527Z,62.8
2016-06-24T12:09:11.538Z,62.6
2016-06-24T12:10:11.553Z,62.8
2016-06-24T12:11:11.560Z,62.99
2016-06-24T12:12:10.982Z,63.19
2016-06-24T12:13:10.989Z,63.29
2016-06-24T12:14:10.996Z,62.9
2016-06-24T12:15:11.018Z,62.7
2016-06-24T12:16:11.026Z,62.32
2016-06-24T12:17:11.041Z,62.8
2016-06-24T12:18:11.657Z,62.73
2016-06-24T12:19:11.666Z,62.83
2016-06-24T12:20:11.673Z,62.7
2016-06-24T12:21:11.683Z,62.25
2016-06-24T12:22:11.708Z,62.44
2016-06-24T12:23:11.105Z,62.54
2016-06-24T12:24:11.144Z,62.8
2016-06-24T12:25:11.140Z,63.12
2016-06-24T12:26:11.180Z,62.93
2016-06-24T12:27:11.167Z,63.12
2016-06-24T12:28:11.165Z,62.83
2016-06-24T12:29:11.179Z,62.93
2016-06-24T12:30:11.796Z,62.93
2016-06-24T12:31:11.209Z,62.73
2016-06-24T12:32:11.218Z,63.22
2016-06-24T12:33:11.228Z,63.42
2016-06-24T12:34:11.856Z,63.42
2016-06-24T12:35:11.853Z,63.22
2016-06-24T12:36:11.863Z,62.63
2016-06-24T12:37:11.287Z,63.02
2016-06-24T12:38:11.295Z,63.02
2016-06-24T12:39:11.904Z,62.93
2016-06-24T12:40:11.313Z,62.54
2016-06-24T12:41:11.926Z,62.83
2016-06-24T12:42:11.933Z,63.32
2016-06-24T12:43:11.951Z,63.32
2016-06-24T12:44:11.366Z,63.42
2016-06-24T12:45:11.977Z,62.83
2016-06-24T12:46:11.996Z,62.93
2016-06-24T12:47:11.996Z,62.93
2016-06-24T12:48:11.409Z,62.83
2016-06-24T12:49:11.429Z,62.73
2016-06-24T12:50:12.042Z,62.73
2016-06-24T12:51:12.052Z,62.83
2016-06-24T12:52:12.067Z,62.54
2016-06-24T12:53:11.473Z,62.63
2016-06-24T12:54:11.491Z,62.25
2016-06-24T12:55:12.116Z,62.54
2016-06-24T12:56:11.512Z,62.83
2016-06-24T12:57:12.128Z,62.83